sensor_id;sensor_type;location;lat;lon;timestamp;temperature;humidity
38436;DHT22;24220;48.168;14.024;2023-03-14T00:01:51;12.00;63.80
38436;DHT22;24220;48.168;14.024;2023-03-14T00:04:26;12.00;63.70
38436;DHT22;24220;48.168;14.024;2023-03-14T00:06:56;12.00;63.70
38436;DHT22;24220;48.168;14.024;2023-03-14T00:09:27;12.00;63.70
38436;DHT22;24220;48.168;14.024;2023-03-14T00:12:02;12.00;63.70
38436;DHT22;24220;48.168;14.024;2023-03-14T00:14:31;12.00;63.70
38436;DHT22;24220;48.168;14.024;2023-03-14T00:16:59;12.00;63.70
38436;DHT22;24220;48.168;14.024;2023-03-14T00:19:30;12.00;63.60
38436;DHT22;24220;48.168;14.024;2023-03-14T00:22:03;12.00;63.60
38436;DHT22;24220;48.168;14.024;2023-03-14T00:24:31;12.00;63.70
38436;DHT22;24220;48.168;14.024;2023-03-14T00:27:00;12.00;63.70
38436;DHT22;24220;48.168;14.024;2023-03-14T00:29:31;11.90;63.70
38436;DHT22;24220;48.168;14.024;2023-03-14T00:32:02;11.90;63.70
38436;DHT22;24220;48.168;14.024;2023-03-14T00:34:31;11.90;63.60
38436;DHT22;24220;48.168;14.024;2023-03-14T00:37:00;11.90;63.50
38436;DHT22;24220;48.168;14.024;2023-03-14T00:39:33;11.90;63.70
38436;DHT22;24220;48.168;14.024;2023-03-14T00:42:05;11.90;63.70
38436;DHT22;24220;48.168;14.024;2023-03-14T00:44:33;11.90;63.70
38436;DHT22;24220;48.168;14.024;2023-03-14T00:47:02;11.90;63.70
38436;DHT22;24220;48.168;14.024;2023-03-14T00:49:33;11.90;63.80
38436;DHT22;24220;48.168;14.024;2023-03-14T00:52:01;11.90;63.80
38436;DHT22;24220;48.168;14.024;2023-03-14T00:54:34;11.90;63.90
38436;DHT22;24220;48.168;14.024;2023-03-14T00:57:06;11.90;64.00
38436;DHT22;24220;48.168;14.024;2023-03-14T00:59:34;12.00;64.10
38436;DHT22;24220;48.168;14.024;2023-03-14T01:02:09;12.00;64.20
38436;DHT22;24220;48.168;14.024;2023-03-14T01:04:41;12.10;64.20
38436;DHT22;24220;48.168;14.024;2023-03-14T01:07:11;12.10;64.30
38436;DHT22;24220;48.168;14.024;2023-03-14T01:09:46;12.10;64.30
38436;DHT22;24220;48.168;14.024;2023-03-14T01:12:16;12.20;64.10
38436;DHT22;24220;48.168;14.024;2023-03-14T01:14:49;12.20;64.10
38436;DHT22;24220;48.168;14.024;2023-03-14T01:17:20;12.20;63.90
38436;DHT22;24220;48.168;14.024;2023-03-14T01:19:54;12.20;63.90
38436;DHT22;24220;48.168;14.024;2023-03-14T01:22:24;12.30;63.80
38436;DHT22;24220;48.168;14.024;2023-03-14T01:24:53;12.30;63.70
38436;DHT22;24220;48.168;14.024;2023-03-14T01:27:25;12.30;63.70
38436;DHT22;24220;48.168;14.024;2023-03-14T01:29:59;12.30;63.70
38436;DHT22;24220;48.168;14.024;2023-03-14T01:32:30;12.30;63.80
38436;DHT22;24220;48.168;14.024;2023-03-14T01:35:06;12.30;63.80
38436;DHT22;24220;48.168;14.024;2023-03-14T01:37:38;12.30;63.90
38436;DHT22;24220;48.168;14.024;2023-03-14T01:40:13;12.40;63.90
38436;DHT22;24220;48.168;14.024;2023-03-14T01:42:57;12.40;63.90
38436;DHT22;24220;48.168;14.024;2023-03-14T01:48:16;12.50;63.70
38436;DHT22;24220;48.168;14.024;2023-03-14T01:50:44;12.50;63.60
38436;DHT22;24220;48.168;14.024;2023-03-14T01:53:14;12.50;63.60
38436;DHT22;24220;48.168;14.024;2023-03-14T01:55:48;12.50;63.50
38436;DHT22;24220;48.168;14.024;2023-03-14T01:58:16;12.50;63.60
38436;DHT22;24220;48.168;14.024;2023-03-14T02:00:47;12.60;63.60
38436;DHT22;24220;48.168;14.024;2023-03-14T02:03:18;12.60;63.40
38436;DHT22;24220;48.168;14.024;2023-03-14T02:05:51;12.60;63.30
38436;DHT22;24220;48.168;14.024;2023-03-14T02:08:26;12.60;63.40
38436;DHT22;24220;48.168;14.024;2023-03-14T02:11:00;12.60;63.50
38436;DHT22;24220;48.168;14.024;2023-03-14T02:13:31;12.60;63.40
38436;DHT22;24220;48.168;14.024;2023-03-14T02:16:00;12.60;63.30
38436;DHT22;24220;48.168;14.024;2023-03-14T02:18:27;12.60;63.20
38436;DHT22;24220;48.168;14.024;2023-03-14T02:23:58;12.60;63.20
38436;DHT22;24220;48.168;14.024;2023-03-14T02:29:05;12.70;63.40
38436;DHT22;24220;48.168;14.024;2023-03-14T02:31:39;12.70;63.40
38436;DHT22;24220;48.168;14.024;2023-03-14T02:34:12;12.70;63.20
38436;DHT22;24220;48.168;14.024;2023-03-14T02:36:42;12.70;63.30
38436;DHT22;24220;48.168;14.024;2023-03-14T02:39:26;12.70;63.30
38436;DHT22;24220;48.168;14.024;2023-03-14T02:42:00;12.70;63.40
38436;DHT22;24220;48.168;14.024;2023-03-14T02:44:30;12.70;63.40
38436;DHT22;24220;48.168;14.024;2023-03-14T02:46:58;12.80;63.50
38436;DHT22;24220;48.168;14.024;2023-03-14T02:49:29;12.80;63.40
38436;DHT22;24220;48.168;14.024;2023-03-14T02:52:02;12.80;63.40
38436;DHT22;24220;48.168;14.024;2023-03-14T02:54:35;12.80;63.40
38436;DHT22;24220;48.168;14.024;2023-03-14T02:57:05;12.80;63.40
38436;DHT22;24220;48.168;14.024;2023-03-14T02:59:32;12.80;63.50
38436;DHT22;24220;48.168;14.024;2023-03-14T03:02:00;12.80;63.50
38436;DHT22;24220;48.168;14.024;2023-03-14T03:04:27;12.90;63.60
38436;DHT22;24220;48.168;14.024;2023-03-14T03:06:54;12.90;63.60
38436;DHT22;24220;48.168;14.024;2023-03-14T03:09:33;12.90;63.50
38436;DHT22;24220;48.168;14.024;2023-03-14T03:12:05;12.90;63.40
38436;DHT22;24220;48.168;14.024;2023-03-14T03:14:38;12.90;63.40
38436;DHT22;24220;48.168;14.024;2023-03-14T03:17:09;12.90;63.30
38436;DHT22;24220;48.168;14.024;2023-03-14T03:19:44;12.90;63.30
38436;DHT22;24220;48.168;14.024;2023-03-14T03:22:29;12.90;63.30
38436;DHT22;24220;48.168;14.024;2023-03-14T03:25:03;12.90;63.20
38436;DHT22;24220;48.168;14.024;2023-03-14T03:27:32;12.90;63.30
38436;DHT22;24220;48.168;14.024;2023-03-14T03:30:01;12.90;63.40
38436;DHT22;24220;48.168;14.024;2023-03-14T03:32:28;12.90;63.70
38436;DHT22;24220;48.168;14.024;2023-03-14T03:34:58;12.90;63.90
38436;DHT22;24220;48.168;14.024;2023-03-14T03:37:33;12.90;64.10
38436;DHT22;24220;48.168;14.024;2023-03-14T03:40:03;12.90;64.30
38436;DHT22;24220;48.168;14.024;2023-03-14T03:42:38;12.90;64.30
38436;DHT22;24220;48.168;14.024;2023-03-14T03:45:09;12.90;64.30
38436;DHT22;24220;48.168;14.024;2023-03-14T03:47:39;12.90;64.30
38436;DHT22;24220;48.168;14.024;2023-03-14T03:50:09;13.00;64.40
38436;DHT22;24220;48.168;14.024;2023-03-14T03:52:46;13.00;64.50
38436;DHT22;24220;48.168;14.024;2023-03-14T03:55:17;13.00;64.50
38436;DHT22;24220;48.168;14.024;2023-03-14T03:57:47;13.00;64.60
38436;DHT22;24220;48.168;14.024;2023-03-14T04:00:15;13.00;64.50
38436;DHT22;24220;48.168;14.024;2023-03-14T04:02:43;13.00;64.60
38436;DHT22;24220;48.168;14.024;2023-03-14T04:05:17;13.00;64.60
38436;DHT22;24220;48.168;14.024;2023-03-14T04:07:52;13.10;64.70
38436;DHT22;24220;48.168;14.024;2023-03-14T04:10:36;13.10;64.80
38436;DHT22;24220;48.168;14.024;2023-03-14T04:13:04;13.10;64.90
38436;DHT22;24220;48.168;14.024;2023-03-14T04:15:34;13.10;64.90
38436;DHT22;24220;48.168;14.024;2023-03-14T04:18:08;13.10;65.00
38436;DHT22;24220;48.168;14.024;2023-03-14T04:20:57;13.10;65.10
38436;DHT22;24220;48.168;14.024;2023-03-14T04:23:29;13.10;65.20
38436;DHT22;24220;48.168;14.024;2023-03-14T04:26:02;13.10;65.10
38436;DHT22;24220;48.168;14.024;2023-03-14T04:28:36;13.10;65.20
38436;DHT22;24220;48.168;14.024;2023-03-14T04:31:14;13.10;65.40
38436;DHT22;24220;48.168;14.024;2023-03-14T04:33:52;13.10;65.70
38436;DHT22;24220;48.168;14.024;2023-03-14T04:36:23;13.10;65.90
38436;DHT22;24220;48.168;14.024;2023-03-14T04:38:51;13.10;66.00
38436;DHT22;24220;48.168;14.024;2023-03-14T04:41:19;13.20;66.10
38436;DHT22;24220;48.168;14.024;2023-03-14T04:44:05;13.20;66.40
38436;DHT22;24220;48.168;14.024;2023-03-14T04:46:35;13.20;67.10
38436;DHT22;24220;48.168;14.024;2023-03-14T04:49:05;13.30;67.30
38436;DHT22;24220;48.168;14.024;2023-03-14T04:51:35;13.30;67.70
38436;DHT22;24220;48.168;14.024;2023-03-14T04:54:03;13.30;68.10
38436;DHT22;24220;48.168;14.024;2023-03-14T04:56:31;13.40;68.60
38436;DHT22;24220;48.168;14.024;2023-03-14T04:59:01;13.40;68.70
38436;DHT22;24220;48.168;14.024;2023-03-14T05:01:31;13.40;68.80
38436;DHT22;24220;48.168;14.024;2023-03-14T05:03:59;13.40;69.20
38436;DHT22;24220;48.168;14.024;2023-03-14T05:06:27;13.40;69.40
38436;DHT22;24220;48.168;14.024;2023-03-14T05:08:54;13.50;69.20
38436;DHT22;24220;48.168;14.024;2023-03-14T05:11:22;13.50;69.30
38436;DHT22;24220;48.168;14.024;2023-03-14T05:13:50;13.50;69.50
38436;DHT22;24220;48.168;14.024;2023-03-14T05:16:21;13.50;69.30
38436;DHT22;24220;48.168;14.024;2023-03-14T05:18:48;13.50;69.40
38436;DHT22;24220;48.168;14.024;2023-03-14T05:21:18;13.50;69.60
38436;DHT22;24220;48.168;14.024;2023-03-14T05:23:47;13.50;70.00
38436;DHT22;24220;48.168;14.024;2023-03-14T05:26:22;13.50;70.20
38436;DHT22;24220;48.168;14.024;2023-03-14T05:28:53;13.50;70.70
38436;DHT22;24220;48.168;14.024;2023-03-14T05:31:21;13.50;70.70
38436;DHT22;24220;48.168;14.024;2023-03-14T05:33:50;13.50;71.70
38436;DHT22;24220;48.168;14.024;2023-03-14T05:36:18;13.50;71.40
38436;DHT22;24220;48.168;14.024;2023-03-14T05:38:49;13.40;71.60
38436;DHT22;24220;48.168;14.024;2023-03-14T05:41:17;13.40;71.90
38436;DHT22;24220;48.168;14.024;2023-03-14T05:43:47;13.40;72.20
38436;DHT22;24220;48.168;14.024;2023-03-14T05:46:18;13.30;72.50
38436;DHT22;24220;48.168;14.024;2023-03-14T05:48:48;13.30;73.10
38436;DHT22;24220;48.168;14.024;2023-03-14T05:51:23;13.30;73.70
38436;DHT22;24220;48.168;14.024;2023-03-14T05:53:51;13.30;73.60
38436;DHT22;24220;48.168;14.024;2023-03-14T05:56:18;13.20;73.50
38436;DHT22;24220;48.168;14.024;2023-03-14T05:58:51;13.20;73.90
38436;DHT22;24220;48.168;14.024;2023-03-14T06:01:23;13.20;74.20
38436;DHT22;24220;48.168;14.024;2023-03-14T06:03:51;13.20;74.70
38436;DHT22;24220;48.168;14.024;2023-03-14T06:06:24;13.20;74.80
38436;DHT22;24220;48.168;14.024;2023-03-14T06:08:54;13.20;74.80
38436;DHT22;24220;48.168;14.024;2023-03-14T06:11:24;13.10;74.90
38436;DHT22;24220;48.168;14.024;2023-03-14T06:13:56;13.10;75.10
38436;DHT22;24220;48.168;14.024;2023-03-14T06:16:31;13.10;75.10
38436;DHT22;24220;48.168;14.024;2023-03-14T06:19:09;13.10;75.20
38436;DHT22;24220;48.168;14.024;2023-03-14T06:21:37;13.10;75.30
38436;DHT22;24220;48.168;14.024;2023-03-14T06:24:08;13.10;75.20
38436;DHT22;24220;48.168;14.024;2023-03-14T06:26:44;13.20;75.30
38436;DHT22;24220;48.168;14.024;2023-03-14T06:29:17;13.10;75.20
38436;DHT22;24220;48.168;14.024;2023-03-14T06:31:48;13.20;75.00
38436;DHT22;24220;48.168;14.024;2023-03-14T06:34:21;13.20;75.10
38436;DHT22;24220;48.168;14.024;2023-03-14T06:36:51;13.20;75.00
38436;DHT22;24220;48.168;14.024;2023-03-14T06:39:28;13.20;74.90
38436;DHT22;24220;48.168;14.024;2023-03-14T06:41:56;13.30;74.90
38436;DHT22;24220;48.168;14.024;2023-03-14T06:44:26;13.30;74.70
38436;DHT22;24220;48.168;14.024;2023-03-14T06:47:00;13.30;74.70
38436;DHT22;24220;48.168;14.024;2023-03-14T06:49:28;13.30;74.70
38436;DHT22;24220;48.168;14.024;2023-03-14T06:52:04;13.30;74.50
38436;DHT22;24220;48.168;14.024;2023-03-14T06:54:35;13.30;74.40
38436;DHT22;24220;48.168;14.024;2023-03-14T06:57:03;13.30;74.40
38436;DHT22;24220;48.168;14.024;2023-03-14T06:59:32;13.30;74.30
38436;DHT22;24220;48.168;14.024;2023-03-14T07:02:07;13.40;74.40
38436;DHT22;24220;48.168;14.024;2023-03-14T07:04:36;13.40;74.40
38436;DHT22;24220;48.168;14.024;2023-03-14T07:07:17;13.40;74.20
38436;DHT22;24220;48.168;14.024;2023-03-14T07:09:49;13.50;74.10
38436;DHT22;24220;48.168;14.024;2023-03-14T07:12:16;13.50;74.00
38436;DHT22;24220;48.168;14.024;2023-03-14T07:14:46;13.50;74.10
38436;DHT22;24220;48.168;14.024;2023-03-14T07:17:15;13.50;74.10
38436;DHT22;24220;48.168;14.024;2023-03-14T07:19:42;13.50;74.10
38436;DHT22;24220;48.168;14.024;2023-03-14T07:22:16;13.50;74.00
38436;DHT22;24220;48.168;14.024;2023-03-14T07:24:44;13.50;74.00
38436;DHT22;24220;48.168;14.024;2023-03-14T07:27:12;13.60;74.00
38436;DHT22;24220;48.168;14.024;2023-03-14T07:29:49;13.60;73.90
38436;DHT22;24220;48.168;14.024;2023-03-14T07:32:19;13.60;74.10
38436;DHT22;24220;48.168;14.024;2023-03-14T07:34:51;13.60;74.00
38436;DHT22;24220;48.168;14.024;2023-03-14T07:37:20;13.60;73.90
38436;DHT22;24220;48.168;14.024;2023-03-14T07:39:55;13.60;74.00
38436;DHT22;24220;48.168;14.024;2023-03-14T07:42:26;13.60;74.10
38436;DHT22;24220;48.168;14.024;2023-03-14T07:45:00;13.60;74.10
38436;DHT22;24220;48.168;14.024;2023-03-14T07:47:33;13.60;74.20
38436;DHT22;24220;48.168;14.024;2023-03-14T07:50:05;13.50;74.30
38436;DHT22;24220;48.168;14.024;2023-03-14T07:52:38;13.50;74.40
38436;DHT22;24220;48.168;14.024;2023-03-14T07:55:13;13.50;74.50
38436;DHT22;24220;48.168;14.024;2023-03-14T07:57:46;13.50;74.40
38436;DHT22;24220;48.168;14.024;2023-03-14T08:00:17;13.50;74.40
38436;DHT22;24220;48.168;14.024;2023-03-14T08:02:48;13.40;74.80
38436;DHT22;24220;48.168;14.024;2023-03-14T08:05:22;13.40;74.70
38436;DHT22;24220;48.168;14.024;2023-03-14T08:07:53;13.40;74.90
38436;DHT22;24220;48.168;14.024;2023-03-14T08:10:28;13.30;75.00
38436;DHT22;24220;48.168;14.024;2023-03-14T08:12:57;13.30;75.30
38436;DHT22;24220;48.168;14.024;2023-03-14T08:15:29;13.30;75.30
38436;DHT22;24220;48.168;14.024;2023-03-14T08:17:57;13.30;75.40
38436;DHT22;24220;48.168;14.024;2023-03-14T08:20:27;13.20;75.40
38436;DHT22;24220;48.168;14.024;2023-03-14T08:23:02;13.20;75.50
38436;DHT22;24220;48.168;14.024;2023-03-14T08:25:40;13.20;76.20
38436;DHT22;24220;48.168;14.024;2023-03-14T08:28:21;13.20;75.80
38436;DHT22;24220;48.168;14.024;2023-03-14T08:30:49;13.20;75.60
38436;DHT22;24220;48.168;14.024;2023-03-14T08:33:17;13.20;75.60
38436;DHT22;24220;48.168;14.024;2023-03-14T08:35:52;13.10;75.60
38436;DHT22;24220;48.168;14.024;2023-03-14T08:38:23;13.10;75.70
38436;DHT22;24220;48.168;14.024;2023-03-14T08:40:58;13.10;75.40
38436;DHT22;24220;48.168;14.024;2023-03-14T08:43:32;13.10;75.30
38436;DHT22;24220;48.168;14.024;2023-03-14T08:46:03;13.20;75.30
38436;DHT22;24220;48.168;14.024;2023-03-14T08:48:34;13.20;75.30
38436;DHT22;24220;48.168;14.024;2023-03-14T08:51:14;13.20;75.90
38436;DHT22;24220;48.168;14.024;2023-03-14T08:53:42;13.20;75.30
38436;DHT22;24220;48.168;14.024;2023-03-14T08:56:10;13.20;75.10
38436;DHT22;24220;48.168;14.024;2023-03-14T08:58:38;13.20;75.10
38436;DHT22;24220;48.168;14.024;2023-03-14T09:01:10;13.20;74.90
38436;DHT22;24220;48.168;14.024;2023-03-14T09:03:40;13.20;74.80
38436;DHT22;24220;48.168;14.024;2023-03-14T09:06:13;13.20;74.70
38436;DHT22;24220;48.168;14.024;2023-03-14T09:08:41;13.20;74.70
38436;DHT22;24220;48.168;14.024;2023-03-14T09:11:14;13.10;74.80
38436;DHT22;24220;48.168;14.024;2023-03-14T09:13:41;13.10;75.70
38436;DHT22;24220;48.168;14.024;2023-03-14T09:16:19;13.10;75.20
38436;DHT22;24220;48.168;14.024;2023-03-14T09:18:56;13.10;75.20
38436;DHT22;24220;48.168;14.024;2023-03-14T09:21:28;13.00;75.60
38436;DHT22;24220;48.168;14.024;2023-03-14T09:24:01;12.90;75.80
38436;DHT22;24220;48.168;14.024;2023-03-14T09:26:28;12.90;76.30
38436;DHT22;24220;48.168;14.024;2023-03-14T09:29:04;12.80;76.50
38436;DHT22;24220;48.168;14.024;2023-03-14T09:31:37;12.80;76.80
38436;DHT22;24220;48.168;14.024;2023-03-14T09:34:18;12.70;77.00
38436;DHT22;24220;48.168;14.024;2023-03-14T09:36:52;12.70;77.20
38436;DHT22;24220;48.168;14.024;2023-03-14T09:39:21;12.70;76.90
38436;DHT22;24220;48.168;14.024;2023-03-14T09:41:52;12.70;77.50
38436;DHT22;24220;48.168;14.024;2023-03-14T09:44:25;12.70;77.50
38436;DHT22;24220;48.168;14.024;2023-03-14T09:46:58;12.70;77.60
38436;DHT22;24220;48.168;14.024;2023-03-14T09:49:32;12.60;77.70
38436;DHT22;24220;48.168;14.024;2023-03-14T09:52:07;12.60;77.90
38436;DHT22;24220;48.168;14.024;2023-03-14T09:54:46;12.60;78.20
38436;DHT22;24220;48.168;14.024;2023-03-14T09:57:21;12.60;78.00
38436;DHT22;24220;48.168;14.024;2023-03-14T09:59:50;12.60;78.10
38436;DHT22;24220;48.168;14.024;2023-03-14T10:02:28;12.60;78.10
38436;DHT22;24220;48.168;14.024;2023-03-14T10:05:05;12.60;78.50
38436;DHT22;24220;48.168;14.024;2023-03-14T10:07:36;12.60;78.40
38436;DHT22;24220;48.168;14.024;2023-03-14T10:10:14;12.60;78.20
38436;DHT22;24220;48.168;14.024;2023-03-14T10:12:49;12.60;78.40
38436;DHT22;24220;48.168;14.024;2023-03-14T10:15:33;12.70;78.40
38436;DHT22;24220;48.168;14.024;2023-03-14T10:18:09;12.70;78.60
38436;DHT22;24220;48.168;14.024;2023-03-14T10:20:42;12.70;78.10
38436;DHT22;24220;48.168;14.024;2023-03-14T10:26:07;12.70;78.00
38436;DHT22;24220;48.168;14.024;2023-03-14T10:28:46;12.70;78.00
38436;DHT22;24220;48.168;14.024;2023-03-14T10:31:17;12.70;77.70
38436;DHT22;24220;48.168;14.024;2023-03-14T10:34:03;12.70;77.60
38436;DHT22;24220;48.168;14.024;2023-03-14T10:36:32;12.70;77.70
38436;DHT22;24220;48.168;14.024;2023-03-14T10:41:53;12.60;77.40
38436;DHT22;24220;48.168;14.024;2023-03-14T10:44:26;12.60;77.50
38436;DHT22;24220;48.168;14.024;2023-03-14T10:46:59;12.60;77.50
38436;DHT22;24220;48.168;14.024;2023-03-14T10:49:31;12.60;77.30
38436;DHT22;24220;48.168;14.024;2023-03-14T10:52:25;12.70;77.10
38436;DHT22;24220;48.168;14.024;2023-03-14T10:55:11;12.60;76.80
38436;DHT22;24220;48.168;14.024;2023-03-14T10:57:42;12.60;76.60
38436;DHT22;24220;48.168;14.024;2023-03-14T11:05:41;12.70;76.60
38436;DHT22;24220;48.168;14.024;2023-03-14T11:11:23;12.70;76.20
38436;DHT22;24220;48.168;14.024;2023-03-14T11:25:27;12.60;75.90
38436;DHT22;24220;48.168;14.024;2023-03-14T11:31:11;12.60;75.80
38436;DHT22;24220;48.168;14.024;2023-03-14T11:36:40;12.70;75.80
38436;DHT22;24220;48.168;14.024;2023-03-14T11:39:14;12.70;75.90
38436;DHT22;24220;48.168;14.024;2023-03-14T11:41:51;12.70;75.90
38436;DHT22;24220;48.168;14.024;2023-03-14T11:44:24;12.70;75.90
38436;DHT22;24220;48.168;14.024;2023-03-14T11:49:45;12.70;75.60
38436;DHT22;24220;48.168;14.024;2023-03-14T11:57:26;12.70;75.50
38436;DHT22;24220;48.168;14.024;2023-03-14T12:00:17;12.80;75.50
38436;DHT22;24220;48.168;14.024;2023-03-14T12:05:56;12.70;75.30
38436;DHT22;24220;48.168;14.024;2023-03-14T12:13:58;12.80;75.30
38436;DHT22;24220;48.168;14.024;2023-03-14T12:16:34;12.70;75.20
38436;DHT22;24220;48.168;14.024;2023-03-14T12:24:31;12.80;75.20
38436;DHT22;24220;48.168;14.024;2023-03-14T12:27:05;12.80;74.90
38436;DHT22;24220;48.168;14.024;2023-03-14T12:29:57;12.80;74.60
38436;DHT22;24220;48.168;14.024;2023-03-14T12:32:25;12.80;74.50
38436;DHT22;24220;48.168;14.024;2023-03-14T12:34:54;12.80;74.60
38436;DHT22;24220;48.168;14.024;2023-03-14T12:40:14;12.90;75.00
38436;DHT22;24220;48.168;14.024;2023-03-14T12:43:03;12.90;74.70
38436;DHT22;24220;48.168;14.024;2023-03-14T12:45:33;13.00;74.80
38436;DHT22;24220;48.168;14.024;2023-03-14T12:48:15;13.00;74.80
38436;DHT22;24220;48.168;14.024;2023-03-14T12:50:53;13.10;74.80
38436;DHT22;24220;48.168;14.024;2023-03-14T12:59:42;13.20;74.50
38436;DHT22;24220;48.168;14.024;2023-03-14T13:02:29;13.30;74.90
38436;DHT22;24220;48.168;14.024;2023-03-14T13:15:44;13.40;73.20
38436;DHT22;24220;48.168;14.024;2023-03-14T13:21:24;13.40;73.40
38436;DHT22;24220;48.168;14.024;2023-03-14T13:24:03;13.40;73.00
38436;DHT22;24220;48.168;14.024;2023-03-14T13:26:42;13.40;72.80
38436;DHT22;24220;48.168;14.024;2023-03-14T13:29:20;13.40;73.00
38436;DHT22;24220;48.168;14.024;2023-03-14T13:31:52;13.40;73.10
38436;DHT22;24220;48.168;14.024;2023-03-14T13:34:21;13.40;72.90
38436;DHT22;24220;48.168;14.024;2023-03-14T13:36:52;13.40;72.50
38436;DHT22;24220;48.168;14.024;2023-03-14T13:39:24;13.40;72.40
38436;DHT22;24220;48.168;14.024;2023-03-14T13:42:01;13.40;72.50
38436;DHT22;24220;48.168;14.024;2023-03-14T13:44:34;13.40;72.50
38436;DHT22;24220;48.168;14.024;2023-03-14T13:47:19;13.40;72.50
38436;DHT22;24220;48.168;14.024;2023-03-14T13:49:48;13.40;72.40
38436;DHT22;24220;48.168;14.024;2023-03-14T13:52:24;13.40;72.30
38436;DHT22;24220;48.168;14.024;2023-03-14T13:54:55;13.40;72.20
38436;DHT22;24220;48.168;14.024;2023-03-14T13:57:26;13.40;72.40
38436;DHT22;24220;48.168;14.024;2023-03-14T14:00:17;13.40;72.40
38436;DHT22;24220;48.168;14.024;2023-03-14T14:02:45;13.40;72.20
38436;DHT22;24220;48.168;14.024;2023-03-14T14:05:13;13.40;72.30
38436;DHT22;24220;48.168;14.024;2023-03-14T14:07:43;13.40;72.20
38436;DHT22;24220;48.168;14.024;2023-03-14T14:10:14;13.40;72.10
38436;DHT22;24220;48.168;14.024;2023-03-14T14:12:55;13.50;72.30
38436;DHT22;24220;48.168;14.024;2023-03-14T14:15:39;13.50;72.40
38436;DHT22;24220;48.168;14.024;2023-03-14T14:18:22;13.50;72.40
38436;DHT22;24220;48.168;14.024;2023-03-14T14:21:06;13.60;72.00
38436;DHT22;24220;48.168;14.024;2023-03-14T14:23:43;13.60;72.00
38436;DHT22;24220;48.168;14.024;2023-03-14T14:26:17;13.60;72.00
38436;DHT22;24220;48.168;14.024;2023-03-14T14:28:46;13.60;71.80
38436;DHT22;24220;48.168;14.024;2023-03-14T14:33:59;13.70;72.00
38436;DHT22;24220;48.168;14.024;2023-03-14T14:41:53;13.70;71.90
38436;DHT22;24220;48.168;14.024;2023-03-14T14:44:29;13.80;71.90
38436;DHT22;24220;48.168;14.024;2023-03-14T14:47:04;13.80;71.70
38436;DHT22;24220;48.168;14.024;2023-03-14T14:49:42;13.80;71.90
38436;DHT22;24220;48.168;14.024;2023-03-14T14:52:19;13.80;71.90
38436;DHT22;24220;48.168;14.024;2023-03-14T14:57:31;13.80;71.80
38436;DHT22;24220;48.168;14.024;2023-03-14T15:00:06;13.80;71.80
38436;DHT22;24220;48.168;14.024;2023-03-14T15:02:58;13.90;72.00
38436;DHT22;24220;48.168;14.024;2023-03-14T15:05:31;13.90;71.90
38436;DHT22;24220;48.168;14.024;2023-03-14T15:08:07;13.90;71.80
38436;DHT22;24220;48.168;14.024;2023-03-14T15:10:35;14.00;71.70
38436;DHT22;24220;48.168;14.024;2023-03-14T15:13:12;14.00;71.80
38436;DHT22;24220;48.168;14.024;2023-03-14T15:15:44;14.00;71.70
38436;DHT22;24220;48.168;14.024;2023-03-14T15:18:18;14.00;71.50
38436;DHT22;24220;48.168;14.024;2023-03-14T15:20:48;14.00;71.50
38436;DHT22;24220;48.168;14.024;2023-03-14T15:23:23;14.00;71.30
38436;DHT22;24220;48.168;14.024;2023-03-14T15:25:53;14.00;71.30
38436;DHT22;24220;48.168;14.024;2023-03-14T15:28:26;14.00;72.10
38436;DHT22;24220;48.168;14.024;2023-03-14T15:30:56;14.00;71.30
38436;DHT22;24220;48.168;14.024;2023-03-14T15:33:26;14.00;71.40
38436;DHT22;24220;48.168;14.024;2023-03-14T15:35:59;14.00;71.30
38436;DHT22;24220;48.168;14.024;2023-03-14T15:38:34;14.00;71.40
38436;DHT22;24220;48.168;14.024;2023-03-14T15:41:03;14.00;71.30
38436;DHT22;24220;48.168;14.024;2023-03-14T15:43:31;14.00;71.50
38436;DHT22;24220;48.168;14.024;2023-03-14T15:46:02;14.00;71.50
38436;DHT22;24220;48.168;14.024;2023-03-14T15:48:39;14.10;71.60
38436;DHT22;24220;48.168;14.024;2023-03-14T15:51:13;14.10;72.20
38436;DHT22;24220;48.168;14.024;2023-03-14T15:53:43;14.10;71.60
38436;DHT22;24220;48.168;14.024;2023-03-14T15:56:15;14.10;71.50
38436;DHT22;24220;48.168;14.024;2023-03-14T15:58:48;14.10;71.50
38436;DHT22;24220;48.168;14.024;2023-03-14T16:01:20;14.10;71.50
38436;DHT22;24220;48.168;14.024;2023-03-14T16:03:48;14.10;71.40
38436;DHT22;24220;48.168;14.024;2023-03-14T16:06:16;14.00;71.20
38436;DHT22;24220;48.168;14.024;2023-03-14T16:08:46;14.00;71.10
38436;DHT22;24220;48.168;14.024;2023-03-14T16:11:15;14.00;71.00
38436;DHT22;24220;48.168;14.024;2023-03-14T16:13:49;14.00;72.00
38436;DHT22;24220;48.168;14.024;2023-03-14T16:16:17;14.00;71.20
38436;DHT22;24220;48.168;14.024;2023-03-14T16:18:48;13.90;71.10
38436;DHT22;24220;48.168;14.024;2023-03-14T16:21:19;14.00;71.20
38436;DHT22;24220;48.168;14.024;2023-03-14T16:23:48;14.00;71.10
38436;DHT22;24220;48.168;14.024;2023-03-14T16:26:18;14.00;71.10
38436;DHT22;24220;48.168;14.024;2023-03-14T16:28:47;14.00;71.10
38436;DHT22;24220;48.168;14.024;2023-03-14T16:31:22;13.90;71.10
38436;DHT22;24220;48.168;14.024;2023-03-14T16:33:55;13.90;71.20
38436;DHT22;24220;48.168;14.024;2023-03-14T16:36:23;14.00;71.20
38436;DHT22;24220;48.168;14.024;2023-03-14T16:38:51;14.00;71.10
38436;DHT22;24220;48.168;14.024;2023-03-14T16:41:23;14.00;71.10
38436;DHT22;24220;48.168;14.024;2023-03-14T16:43:58;14.00;70.80
38436;DHT22;24220;48.168;14.024;2023-03-14T16:46:27;14.00;69.80
38436;DHT22;24220;48.168;14.024;2023-03-14T16:49:00;14.00;69.70
38436;DHT22;24220;48.168;14.024;2023-03-14T16:51:33;14.00;69.40
38436;DHT22;24220;48.168;14.024;2023-03-14T16:54:08;13.90;69.40
38436;DHT22;24220;48.168;14.024;2023-03-14T16:56:36;13.90;69.00
38436;DHT22;24220;48.168;14.024;2023-03-14T16:59:03;13.90;68.90
38436;DHT22;24220;48.168;14.024;2023-03-14T17:01:36;13.90;68.90
38436;DHT22;24220;48.168;14.024;2023-03-14T17:04:12;13.80;68.60
38436;DHT22;24220;48.168;14.024;2023-03-14T17:06:39;13.80;68.80
38436;DHT22;24220;48.168;14.024;2023-03-14T17:09:12;13.80;69.00
38436;DHT22;24220;48.168;14.024;2023-03-14T17:11:43;13.80;69.10
38436;DHT22;24220;48.168;14.024;2023-03-14T17:14:15;13.80;69.30
38436;DHT22;24220;48.168;14.024;2023-03-14T17:16:47;13.70;69.40
38436;DHT22;24220;48.168;14.024;2023-03-14T17:19:20;13.70;69.70
38436;DHT22;24220;48.168;14.024;2023-03-14T17:21:52;13.60;70.00
38436;DHT22;24220;48.168;14.024;2023-03-14T17:24:35;13.60;69.70